createdAt,value
2022-09-07T06:49:04.993Z,100421.91
2022-09-07T06:51:32.243Z,100519.50
2022-09-07T06:56:49.613Z,99947.00
2022-09-07T06:59:16.464Z,100557.84
2022-09-07T07:01:43.274Z,100656.16
2022-09-07T07:04:10.011Z,100426.03
2022-09-07T07:06:38.422Z,100679.00
2022-09-07T07:09:06.911Z,100384.41
2022-09-07T07:11:34.021Z,100392.81
2022-09-07T07:14:00.864Z,100690.56
2022-09-07T07:16:27.791Z,100624.59
2022-09-07T07:18:55.830Z,100691.41
2022-09-07T07:21:23.042Z,100652.38
2022-09-07T07:23:51.109Z,100570.94
2022-09-07T07:27:12.412Z,100694.53
2022-09-07T07:29:40.045Z,100700.69
2022-09-07T07:32:06.802Z,100697.41
2022-09-07T07:34:34.450Z,100532.81
2022-09-07T07:37:01.145Z,100660.97
2022-09-07T07:42:15.588Z,100642.34
2022-09-07T07:44:42.324Z,100700.50
2022-09-07T07:47:09.651Z,100635.38
2022-09-07T07:49:37.680Z,100635.72
2022-09-07T07:54:53.541Z,100583.97
2022-09-07T07:57:20.382Z,100555.09
2022-09-07T07:59:48.036Z,100638.81
2022-09-07T08:02:17.510Z,100661.91
2022-09-07T08:04:44.475Z,100582.41
2022-09-07T08:07:15.126Z,100691.22
2022-09-07T08:09:44.471Z,100688.63
2022-09-07T08:12:14.360Z,100582.41
2022-09-07T08:14:41.771Z,100614.19
2022-09-07T08:17:10.976Z,100694.03
2022-09-07T08:19:38.049Z,100442.00
2022-09-07T08:22:05.873Z,100700.56
2022-09-07T08:24:32.506Z,100702.97
2022-09-07T08:26:59.185Z,100584.81
2022-09-07T08:29:27.374Z,100711.75
2022-09-07T08:31:57.337Z,100553.16
2022-09-07T08:34:24.327Z,100725.22
2022-09-07T08:36:51.047Z,100649.63
2022-09-07T08:39:17.837Z,100132.53
2022-09-07T08:41:47.519Z,100724.03
2022-09-07T08:44:20.467Z,100720.19
2022-09-07T08:46:50.127Z,100729.09
2022-09-07T08:49:20.711Z,100724.31
2022-09-07T08:51:52.773Z,100718.84
2022-09-07T08:54:19.510Z,100498.16
2022-09-07T08:59:55.043Z,100700.78
2022-09-07T09:02:32.666Z,100584.38
2022-09-07T09:05:17.603Z,100736.81
2022-09-07T09:07:47.964Z,100737.56
2022-09-07T09:10:37.072Z,100732.00
2022-09-07T09:13:22.549Z,100728.66
2022-09-07T09:15:58.748Z,100565.00
2022-09-07T09:19:05.729Z,100732.81
2022-09-07T09:21:34.874Z,100731.34
2022-09-07T09:24:11.014Z,100736.09
2022-09-07T09:26:39.184Z,100483.56
2022-09-07T09:29:13.634Z,100610.47
2022-09-07T09:31:40.391Z,100686.41
2022-09-07T09:34:14.350Z,100733.56
2022-09-07T09:36:55.838Z,100735.44
2022-09-07T09:39:37.609Z,100676.97
2022-09-07T09:42:07.371Z,100733.84
2022-09-07T09:44:37.578Z,100726.97
2022-09-07T09:49:54.410Z,100516.88
2022-09-07T09:52:32.642Z,100682.66
2022-09-07T09:55:30.236Z,100705.78
2022-09-07T10:01:22.354Z,100709.41
2022-09-07T10:06:25.254Z,100480.28
2022-09-07T10:08:59.596Z,100742.03
2022-09-07T10:14:32.643Z,100750.84
2022-09-07T10:17:01.931Z,100621.56
2022-09-07T10:19:33.679Z,100745.94
2022-09-07T10:22:04.633Z,100480.69
2022-09-07T10:24:38.209Z,100589.34
2022-09-07T10:27:35.988Z,100735.94
2022-09-07T10:30:10.051Z,100739.13
2022-09-07T10:32:49.118Z,100738.38
2022-09-07T10:35:29.267Z,100706.19
2022-09-07T10:38:04.962Z,100697.06
2022-09-07T10:40:34.974Z,100462.28
2022-09-07T10:43:21.281Z,100731.66
2022-09-07T10:46:14.169Z,100593.47
2022-09-07T10:48:56.492Z,100709.59
2022-09-07T10:51:36.948Z,100704.34
2022-09-07T10:54:37.803Z,100656.19
2022-09-07T10:57:34.478Z,100567.34
2022-09-07T11:00:16.772Z,100698.78
2022-09-07T11:03:27.101Z,100708.22
2022-09-07T11:05:57.616Z,100697.81
2022-09-07T11:12:01.124Z,100704.88
2022-09-07T11:14:29.989Z,100695.44
2022-09-07T11:17:12.623Z,100626.78
2022-09-07T11:20:01.391Z,100441.13
2022-09-07T11:22:34.576Z,100561.25
2022-09-07T11:27:56.601Z,100633.00
2022-09-07T11:30:26.955Z,100617.13
2022-09-07T11:33:03.189Z,100492.41
2022-09-07T11:35:50.202Z,100685.00
2022-09-07T11:38:27.408Z,100622.84
2022-09-07T11:41:23.525Z,100684.00
2022-09-07T11:44:36.196Z,100680.72
2022-09-07T11:47:14.486Z,100684.25
2022-09-07T11:49:41.572Z,100409.59
2022-09-07T11:52:33.882Z,100590.72
2022-09-07T11:55:04.550Z,100676.84
2022-09-07T11:57:44.226Z,100673.56
2022-09-07T12:00:13.969Z,100650.81
2022-09-07T12:02:59.296Z,100672.31
2022-09-07T12:06:02.561Z,100671.53
2022-09-07T12:08:37.163Z,100633.53
2022-09-07T12:11:41.063Z,100676.78
2022-09-07T12:14:45.296Z,100665.63
2022-09-07T12:17:37.220Z,100565.75
2022-09-07T12:20:16.174Z,100660.44
2022-09-07T12:23:05.568Z,100678.69
2022-09-07T12:25:34.746Z,100555.84
2022-09-07T12:28:01.940Z,100590.50
2022-09-07T12:30:30.244Z,100672.38
2022-09-07T12:32:58.633Z,100671.81
2022-09-07T12:35:28.821Z,100666.97
2022-09-07T12:38:00.630Z,100637.53
2022-09-07T12:40:27.485Z,100650.63
2022-09-07T12:43:14.299Z,100646.41
2022-09-07T12:45:40.881Z,100643.09
2022-09-07T12:48:16.794Z,100648.13
2022-09-07T12:51:04.657Z,100646.53
2022-09-07T12:53:52.147Z,100586.84
2022-09-07T12:56:25.046Z,100638.75
2022-09-07T12:59:20.194Z,100578.94
2022-09-07T13:02:13.276Z,100640.38
2022-09-07T13:04:50.127Z,100640.81
2022-09-07T13:07:16.842Z,100551.66
2022-09-07T13:10:03.955Z,100637.41
2022-09-07T13:12:57.811Z,100625.88
2022-09-07T13:15:38.824Z,100623.59
2022-09-07T13:18:06.054Z,100649.19
2022-09-07T13:20:36.365Z,100626.66
2022-09-07T13:23:25.836Z,100614.72
2022-09-07T13:25:56.076Z,100571.75
2022-09-07T13:28:27.002Z,100555.34
2022-09-07T13:31:24.295Z,100614.44
2022-09-07T13:33:52.179Z,100609.94
2022-09-07T13:36:32.621Z,100489.22
2022-09-07T13:38:59.638Z,100559.00
2022-09-07T13:41:32.071Z,100283.59
2022-09-07T13:44:03.782Z,100560.22
2022-09-07T13:47:00.352Z,100598.22
2022-09-07T13:49:46.861Z,100597.66
2022-09-07T13:52:27.957Z,100588.28
2022-09-07T13:55:03.925Z,100536.44
2022-09-07T13:57:40.211Z,100591.22
2022-09-07T14:00:17.607Z,100525.25
2022-09-07T14:02:44.379Z,100589.63
2022-09-07T14:05:12.291Z,100421.94
2022-09-07T14:07:46.596Z,100478.53
2022-09-07T14:10:23.593Z,100589.41
2022-09-07T14:13:06.267Z,100587.19
2022-09-07T14:15:39.311Z,100596.72
2022-09-07T14:18:11.617Z,100582.19
2022-09-07T14:20:41.506Z,100321.50
2022-09-07T14:23:28.166Z,100472.69
2022-09-07T14:26:18.856Z,100467.41
2022-09-07T14:28:48.640Z,100511.97
2022-09-07T14:31:17.547Z,100208.91
2022-09-07T14:33:53.592Z,100292.19
2022-09-07T14:36:43.914Z,100512.47
2022-09-07T14:39:12.770Z,100557.16
2022-09-07T14:41:41.381Z,100401.19
2022-09-07T14:44:39.196Z,100477.97
2022-09-07T14:47:29.258Z,100564.69
2022-09-07T14:50:06.453Z,100456.84
2022-09-07T14:52:42.333Z,100561.97
2022-09-07T14:55:29.067Z,100540.53
2022-09-07T14:58:32.375Z,100360.09
2022-09-07T15:04:17.265Z,100549.34
2022-09-07T15:07:02.881Z,100021.00
2022-09-07T15:09:36.369Z,100411.66
2022-09-07T15:12:36.359Z,100405.63
2022-09-07T15:15:32.417Z,100547.06
2022-09-07T15:18:09.042Z,100427.63
2022-09-07T15:20:40.271Z,100543.47
2022-09-07T15:23:19.531Z,100518.44
2022-09-07T15:25:51.845Z,100542.47
2022-09-07T15:34:18.264Z,100543.16
2022-09-07T15:36:50.294Z,100403.88
2022-09-07T15:39:23.233Z,100529.38
2022-09-07T15:41:51.440Z,100468.38
2022-09-07T15:44:22.867Z,100413.09
2022-09-07T15:49:45.998Z,100463.16
2022-09-07T15:52:17.386Z,100287.28
2022-09-07T15:54:44.003Z,100406.81
2022-09-07T15:59:57.724Z,100508.25
2022-09-07T16:05:11.355Z,100486.66
2022-09-07T16:10:31.045Z,100504.78
2022-09-07T16:13:02.803Z,100424.44
2022-09-07T16:15:31.627Z,100279.88
2022-09-07T16:17:58.636Z,100494.47
2022-09-07T16:20:25.595Z,100479.66
2022-09-07T16:25:39.659Z,100487.56
2022-09-07T16:28:07.122Z,100374.44
2022-09-07T16:30:34.111Z,100479.47
2022-09-07T16:33:00.721Z,100487.28
2022-09-07T16:35:28.668Z,100398.06
2022-09-07T16:40:43.287Z,100486.69
2022-09-07T16:43:10.122Z,100485.09
2022-09-07T16:48:23.833Z,99773.78
2022-09-07T16:50:56.559Z,100381.53
2022-09-07T16:53:28.571Z,100103.34
2022-09-07T16:56:11.498Z,100495.59
2022-09-07T16:58:41.840Z,100287.09
2022-09-07T17:01:10.474Z,100499.13
2022-09-07T17:03:37.872Z,100147.78
2022-09-07T17:06:07.286Z,100439.09
2022-09-07T17:08:34.907Z,100494.28
2022-09-07T17:11:03.808Z,100461.25
2022-09-07T17:13:31.134Z,100372.44
2022-09-07T17:16:10.169Z,100486.94
2022-09-07T17:21:29.076Z,100360.28
2022-09-07T17:23:56.542Z,100387.91
2022-09-07T17:26:26.686Z,100440.06
2022-09-07T17:28:56.912Z,100448.88
2022-09-07T17:34:16.300Z,100350.03
2022-09-07T17:36:43.100Z,100410.16
2022-09-07T17:39:18.592Z,100454.09
2022-09-07T17:41:52.662Z,100441.66
2022-09-07T17:44:19.887Z,100372.97
2022-09-07T17:46:46.471Z,100356.88
2022-09-07T17:49:19.787Z,100421.56
2022-09-07T17:51:46.550Z,100477.47
2022-09-07T17:54:15.610Z,100439.47
2022-09-07T17:56:42.929Z,100471.97
2022-09-07T18:01:57.129Z,100470.94
2022-09-07T18:04:24.224Z,100305.16
2022-09-07T18:06:51.524Z,100354.13
2022-09-07T18:09:19.661Z,100287.78
2022-09-07T18:11:48.620Z,100343.66
2022-09-07T18:14:16.255Z,100458.50
2022-09-07T18:16:44.200Z,100456.00
2022-09-07T18:19:11.830Z,100284.44
2022-09-07T18:21:40.921Z,100468.78
2022-09-07T18:24:17.193Z,100484.19
2022-09-07T18:26:49.654Z,100392.84
2022-09-07T18:29:28.197Z,100489.59
2022-09-07T18:31:59.277Z,100346.75
2022-09-07T18:34:26.153Z,100493.44
2022-09-07T18:36:52.720Z,100460.84
2022-09-07T18:39:19.246Z,100484.31
2022-09-07T18:41:45.887Z,100429.84
2022-09-07T18:46:59.117Z,100486.50
2022-09-07T18:49:25.855Z,100482.31
2022-09-07T18:54:41.282Z,100359.97
2022-09-07T18:57:08.228Z,100394.66
2022-09-07T18:59:35.031Z,100328.00
2022-09-07T19:02:04.777Z,100236.78
2022-09-07T19:07:20.764Z,100413.72
2022-09-07T19:09:48.241Z,100332.94
2022-09-07T19:12:15.397Z,100355.50
2022-09-07T19:14:43.688Z,100286.50
2022-09-07T19:17:13.193Z,100381.84
2022-09-07T19:19:40.258Z,100260.84
2022-09-07T19:22:06.881Z,100299.03
2022-09-07T19:24:33.484Z,100433.16
2022-09-07T19:27:01.125Z,100447.03
2022-09-07T19:29:31.737Z,100472.06
2022-09-07T19:32:04.450Z,100473.66
2022-09-07T19:34:35.555Z,100458.50
2022-09-07T19:37:03.250Z,100464.41
2022-09-07T19:39:29.886Z,100462.53
2022-09-07T19:41:56.695Z,100369.88
2022-09-07T19:44:23.476Z,100454.81
2022-09-07T19:46:50.303Z,100353.19
2022-09-07T19:49:18.820Z,100113.63
2022-09-07T19:51:45.863Z,100355.41
2022-09-07T19:54:13.592Z,100344.88
2022-09-07T19:56:45.673Z,100436.34
2022-09-07T19:59:13.722Z,100316.97
2022-09-07T20:01:43.697Z,100383.03
2022-09-07T20:04:16.040Z,100338.25
2022-09-07T20:06:46.655Z,100425.47
2022-09-07T20:09:16.377Z,100420.13
2022-09-07T20:11:46.521Z,100346.72
2022-09-07T20:14:14.686Z,100244.44
2022-09-07T20:16:41.991Z,100406.84
2022-09-07T20:19:10.999Z,100406.13
2022-09-07T20:21:39.187Z,100241.41
2022-09-07T20:24:05.998Z,100318.63
2022-09-07T20:26:32.792Z,100404.00
2022-09-07T20:31:49.579Z,100412.16
2022-09-07T20:34:16.225Z,100317.03
2022-09-07T20:36:42.808Z,100343.00
2022-09-07T20:39:14.509Z,100359.25
2022-09-07T20:41:41.055Z,100412.31
2022-09-07T20:44:08.651Z,100408.34
2022-09-07T20:46:38.709Z,100258.75
2022-09-07T20:49:05.784Z,100306.53
2022-09-07T20:51:32.463Z,100400.91
2022-09-07T20:53:59.135Z,100060.31
2022-09-07T20:56:27.632Z,100100.84
2022-09-07T20:58:56.305Z,100394.28
2022-09-07T21:01:23.825Z,100330.34
2022-09-07T21:03:52.215Z,100222.66
2022-09-07T21:06:19.813Z,100389.47
2022-09-07T21:08:48.589Z,100335.19
2022-09-07T21:11:18.300Z,100390.41
2022-09-07T21:13:45.057Z,100212.00
2022-09-07T21:16:14.803Z,100389.16
2022-09-07T21:18:43.103Z,100333.47
2022-09-07T21:21:24.954Z,100233.25
2022-09-07T21:23:59.776Z,100278.56
2022-09-07T21:26:27.890Z,100379.13
2022-09-07T21:29:02.902Z,100385.81
2022-09-07T21:31:31.106Z,100347.06
2022-09-07T21:33:59.102Z,100376.25
2022-09-07T21:36:30.237Z,100345.97
2022-09-07T21:38:57.053Z,100369.88
2022-09-07T21:41:25.204Z,100230.09
2022-09-07T21:44:00.262Z,100379.19
2022-09-07T21:46:29.007Z,100380.50
2022-09-07T21:48:56.753Z,100297.97
2022-09-07T21:51:26.124Z,100274.38
2022-09-07T21:53:57.489Z,100393.69
2022-09-07T21:56:25.859Z,100157.66
2022-09-07T21:59:00.011Z,100354.63
2022-09-07T22:01:28.636Z,100312.97
2022-09-07T22:04:00.772Z,100337.63
2022-09-07T22:06:28.938Z,100319.03
2022-09-07T22:08:55.986Z,100366.22
2022-09-07T22:11:23.758Z,100398.84
2022-09-07T22:13:57.568Z,100248.78
2022-09-07T22:16:24.822Z,100389.31
2022-09-07T22:18:51.921Z,100123.69
2022-09-07T22:21:21.189Z,100404.81
2022-09-07T22:23:51.856Z,100184.19
2022-09-07T22:26:21.186Z,100305.91
2022-09-07T22:28:48.394Z,100382.88
2022-09-07T22:31:29.205Z,100409.44
2022-09-07T22:33:59.222Z,100411.84
2022-09-07T22:36:32.886Z,100404.16
2022-09-07T22:39:02.008Z,100392.47
2022-09-07T22:41:37.818Z,100368.06
2022-09-07T22:44:06.421Z,100351.56
2022-09-07T22:46:37.121Z,100387.94
2022-09-07T22:49:05.246Z,100393.25
2022-09-07T22:51:32.240Z,100391.91
2022-09-07T22:53:59.026Z,100164.03
2022-09-07T22:56:28.348Z,100378.59
2022-09-07T22:59:01.717Z,100295.31
2022-09-07T23:01:33.135Z,100385.75
2022-09-07T23:04:00.532Z,100217.06
2022-09-07T23:06:29.442Z,100258.63
2022-09-07T23:08:57.553Z,100362.34
2022-09-07T23:11:24.636Z,100288.38
2022-09-07T23:13:56.848Z,100344.56
2022-09-07T23:16:25.953Z,100351.47
2022-09-07T23:18:52.787Z,100110.19
2022-09-07T23:21:20.730Z,100284.31
2022-09-07T23:23:52.338Z,100335.28
2022-09-07T23:26:20.909Z,100335.84
2022-09-07T23:29:12.056Z,100251.25
2022-09-07T23:31:41.667Z,100326.84
2022-09-07T23:34:08.938Z,100079.50
2022-09-07T23:36:38.749Z,100014.84
2022-09-07T23:39:05.451Z,100071.28
2022-09-07T23:41:32.192Z,100312.78
2022-09-07T23:43:59.007Z,100320.72
2022-09-07T23:46:26.429Z,100079.72
2022-09-07T23:48:53.496Z,100177.53
2022-09-07T23:51:24.175Z,100049.28
2022-09-07T23:53:52.569Z,99939.84
2022-09-07T23:56:20.022Z,99943.00
2022-09-07T23:58:46.762Z,100072.75
